KEOE

Newberry County Airport

Newberry, South Carolina, USA
METAR KEOE 172055Z AUTO 21004KT 10SM SCT047 SCT075 SCT120 12/00 A3023 RMK AO2
Observed Flight Rules
Dec-17 @ 20:55 UTC (34 minutes ago) Visual Flight Rules
Wind Visibility Clouds
210° at 4 knots 10 miles
  • Scattered at 4,700' AGL
  • Scattered at 7,500' AGL
  • Scattered at 12,000' AGL
Temperatures Readings
Current 12°C / 54°F
Dewpoint 0°C / 32°F
Humidity 44%
Altimeter 30.23" Hg
Pressure 1024 hPa
Elevation 174
METAR KEOE 172055Z AUTO 21004KT 10SM SCT047 SCT075 SCT120 12/00 A3023 RMK AO2
Observed Flight Rules
Dec-17 @ 20:55 UTC
(34 minutes ago)
VFR
Wind Visibility
210° at 4 knots 10 miles
Clouds
  • Scattered at 4,700' AGL
  • Scattered at 7,500' AGL
  • Scattered at 12,000' AGL
Temperature Dewpoint
12°C / 54°F 0°C / 32°F
Humidity Altimeter Pressure
44% 30.23" Hg 1024 hPa